Time;durP1;ratioP1;P1;durP2;ratioP2;P2;SDS_P1;SDS_P2;PMS_P1;PMS_P2;Temp;Humidity;BMP_temperature;BMP_pressure;BME280_temperature;BME280_humidity;BME280_pressure;Samples;Min_cycle;Max_cycle;Signal;HPM_P1;HPM_P2
2023/05/07 00:01:47;;;;;;;9.53;6.13;;;15.50;99.90;;;;;;4915717;29;20233;-60
2023/05/07 00:04:16;;;;;;;15.27;7.30;;;15.40;99.90;;;;;;4934398;29;20249;-60
2023/05/07 00:06:44;;;;;;;13.90;6.23;;;15.40;99.90;;;;;;4933571;29;20250;-60
2023/05/07 00:09:13;;;;;;;12.70;6.83;;;15.40;99.90;;;;;;4929002;29;20198;-60
2023/05/07 00:11:41;;;;;;;11.13;6.83;;;15.40;99.90;;;;;;4921741;29;20228;-60
2023/05/07 00:14:09;;;;;;;11.77;7.23;;;15.40;99.90;;;;;;4927574;29;20717;-61
2023/05/07 00:16:38;;;;;;;12.27;6.60;;;15.30;99.90;;;;;;4932202;29;20280;-60
2023/05/07 00:19:07;;;;;;;11.70;6.97;;;15.30;99.90;;;;;;4926443;29;20742;-60
2023/05/07 00:21:36;;;;;;;10.60;6.67;;;15.20;99.90;;;;;;4929643;29;20239;-60
2023/05/07 00:24:05;;;;;;;14.33;7.10;;;15.20;99.90;;;;;;4930517;29;20197;-61
2023/05/07 00:26:33;;;;;;;15.00;6.90;;;15.10;99.90;;;;;;4932129;29;20225;-60
2023/05/07 00:29:01;;;;;;;10.80;7.00;;;15.10;99.90;;;;;;4927815;29;20229;-60
2023/05/07 00:31:30;;;;;;;10.73;6.90;;;15.10;99.90;;;;;;4927412;29;20719;-60
2023/05/07 00:33:58;;;;;;;16.67;6.67;;;15.10;99.90;;;;;;4931305;29;20238;-60
2023/05/07 00:36:28;;;;;;;12.87;6.90;;;15.10;99.90;;;;;;4925080;29;20197;-60
2023/05/07 00:39:00;;;;;;;17.00;7.10;;;15.00;99.90;;;;;;4929052;29;20650;-60
2023/05/07 00:41:28;;;;;;;11.90;6.77;;;15.00;99.90;;;;;;4929159;29;20755;-60
2023/05/07 00:43:56;;;;;;;14.60;6.83;;;14.90;99.90;;;;;;4928644;29;20965;-60
2023/05/07 00:46:25;;;;;;;11.97;6.80;;;14.80;99.90;;;;;;4931149;29;20229;-60
2023/05/07 00:48:55;;;;;;;13.93;6.70;;;14.70;99.90;;;;;;4928904;29;20233;-59
2023/05/07 00:51:24;;;;;;;12.03;6.90;;;14.70;99.90;;;;;;4934992;29;20224;-60
2023/05/07 00:53:54;;;;;;;15.03;7.23;;;14.60;99.90;;;;;;4931137;29;20204;-60
2023/05/07 00:56:23;;;;;;;10.70;6.67;;;14.60;99.90;;;;;;4927549;29;20683;-60
2023/05/07 00:58:51;;;;;;;9.90;6.60;;;14.50;99.90;;;;;;4928666;29;20283;-60
2023/05/07 01:04:39;;;;;;;14.73;6.50;;;14.50;99.90;;;;;;5586289;23;20319;-60
2023/05/07 01:07:08;;;;;;;12.50;7.03;;;14.50;99.90;;;;;;4938308;28;20231;-60
2023/05/07 01:09:38;;;;;;;12.77;7.03;;;14.40;99.90;;;;;;4945200;28;20283;-60
2023/05/07 01:12:08;;;;;;;12.60;7.13;;;14.40;99.90;;;;;;4945168;29;20267;-60
2023/05/07 01:14:36;;;;;;;10.30;6.80;;;14.40;99.90;;;;;;4939766;28;20223;-60
2023/05/07 01:17:05;;;;;;;11.17;6.77;;;14.30;99.90;;;;;;4940801;28;20563;-60
2023/05/07 01:19:33;;;;;;;10.27;6.60;;;14.30;99.90;;;;;;4951281;29;20243;-60
2023/05/07 01:22:04;;;;;;;11.00;6.93;;;14.30;99.90;;;;;;4953576;28;20231;-60
2023/05/07 01:24:36;;;;;;;15.93;7.30;;;14.20;99.90;;;;;;4953755;28;20204;-60
2023/05/07 01:27:04;;;;;;;12.87;7.40;;;14.20;99.90;;;;;;4949717;28;20208;-60
2023/05/07 01:29:33;;;;;;;11.83;6.73;;;14.20;99.90;;;;;;4953343;28;20220;-60
2023/05/07 01:32:02;;;;;;;13.00;7.60;;;14.20;99.90;;;;;;4953755;28;20224;-60
2023/05/07 01:34:33;;;;;;;10.17;6.93;;;14.10;99.90;;;;;;4952297;28;20224;-60
2023/05/07 01:37:02;;;;;;;12.10;6.50;;;14.10;99.90;;;;;;4949783;28;20353;-60
2023/05/07 01:39:31;;;;;;;11.73;7.17;;;14.10;99.90;;;;;;4954279;28;20617;-60
2023/05/07 01:42:01;;;;;;;14.07;7.63;;;14.10;99.90;;;;;;4953622;29;20239;-60
2023/05/07 01:44:29;;;;;;;12.27;6.90;;;14.10;99.90;;;;;;4953802;28;20718;-60
2023/05/07 01:46:59;;;;;;;11.03;6.97;;;14.10;99.90;;;;;;4946631;29;20220;-60
2023/05/07 01:49:27;;;;;;;10.93;7.30;;;14.10;99.90;;;;;;4951420;29;20243;-60
2023/05/07 01:51:56;;;;;;;14.10;6.90;;;14.00;99.90;;;;;;4942772;28;20224;-60
2023/05/07 01:54:28;;;;;;;15.23;7.50;;;14.00;99.90;;;;;;4949189;28;20208;-59
2023/05/07 01:56:57;;;;;;;12.17;7.20;;;14.00;99.90;;;;;;4948988;28;20554;-60
2023/05/07 01:59:27;;;;;;;12.43;7.07;;;14.00;99.90;;;;;;4952412;28;20239;-60
2023/05/07 02:01:55;;;;;;;10.47;6.77;;;14.00;99.90;;;;;;4946375;28;20232;-60
2023/05/07 02:04:24;;;;;;;11.87;7.47;;;14.00;99.90;;;;;;4947881;28;20240;-60
2023/05/07 02:06:52;;;;;;;14.80;7.43;;;14.00;99.90;;;;;;4947273;29;20515;-59
2023/05/07 02:09:20;;;;;;;15.30;7.30;;;14.00;99.90;;;;;;4948919;28;20216;-60
2023/05/07 02:11:49;;;;;;;13.00;7.20;;;14.10;99.90;;;;;;4935823;29;20192;-60
2023/05/07 02:14:17;;;;;;;12.30;7.37;;;14.10;99.90;;;;;;4938764;28;20217;-60
2023/05/07 02:16:47;;;;;;;11.30;7.33;;;14.10;99.90;;;;;;4946119;28;20315;-60
2023/05/07 02:19:15;;;;;;;10.13;6.83;;;14.10;99.90;;;;;;4947984;28;20231;-60
2023/05/07 02:21:44;;;;;;;8.97;7.00;;;14.10;99.90;;;;;;4949080;29;20235;-60
2023/05/07 02:24:12;;;;;;;15.57;7.60;;;14.10;99.90;;;;;;4947338;29;20197;-60
2023/05/07 02:26:41;;;;;;;15.50;7.47;;;14.00;99.90;;;;;;4946697;29;20239;-60
2023/05/07 02:29:09;;;;;;;15.57;7.27;;;14.10;99.90;;;;;;4951539;28;20254;-60
2023/05/07 02:31:37;;;;;;;14.27;7.10;;;14.10;99.90;;;;;;4943925;29;20622;-60
2023/05/07 02:34:07;;;;;;;11.40;7.70;;;14.10;99.90;;;;;;4947099;29;20223;-60
2023/05/07 02:36:35;;;;;;;17.90;7.93;;;14.10;99.90;;;;;;4940784;29;20699;-60
2023/05/07 02:39:03;;;;;;;18.10;7.93;;;14.00;99.90;;;;;;4944513;29;20192;-60
2023/05/07 02:41:32;;;;;;;9.93;7.60;;;14.00;99.90;;;;;;4944037;28;20224;-60
2023/05/07 02:44:00;;;;;;;14.27;7.93;;;14.00;99.90;;;;;;4951134;29;20226;-60
2023/05/07 02:46:28;;;;;;;14.90;8.23;;;14.00;99.90;;;;;;4950970;29;20224;-60
2023/05/07 02:48:57;;;;;;;10.60;7.93;;;14.00;99.90;;;;;;4943254;29;20377;-60
2023/05/07 02:51:27;;;;;;;12.17;7.53;;;14.00;99.90;;;;;;4946396;28;20259;-60
2023/05/07 02:53:55;;;;;;;12.73;7.67;;;14.00;99.90;;;;;;4949293;29;20750;-59
2023/05/07 02:56:23;;;;;;;14.10;7.27;;;14.00;99.90;;;;;;4943775;28;20225;-60
2023/05/07 02:58:51;;;;;;;13.30;7.47;;;14.00;99.90;;;;;;4943928;28;20232;-60
2023/05/07 03:01:20;;;;;;;13.40;7.30;;;14.00;99.90;;;;;;4948629;29;20646;-60
2023/05/07 03:03:49;;;;;;;10.87;6.97;;;14.10;99.90;;;;;;4944522;29;20559;-60
2023/05/07 03:06:17;;;;;;;19.07;7.77;;;14.00;99.90;;;;;;4953357;29;20740;-60
2023/05/07 03:08:47;;;;;;;12.87;7.43;;;14.00;99.90;;;;;;4950765;29;20245;-60
2023/05/07 03:11:15;;;;;;;10.43;7.60;;;14.00;99.90;;;;;;4939195;29;20220;-60
2023/05/07 03:13:43;;;;;;;12.77;7.80;;;14.00;99.90;;;;;;4946446;29;20243;-60
2023/05/07 03:16:11;;;;;;;13.37;7.87;;;13.90;99.90;;;;;;4947004;29;20220;-60
2023/05/07 03:18:39;;;;;;;15.97;7.20;;;13.90;99.90;;;;;;4948769;29;20228;-60
2023/05/07 03:21:08;;;;;;;12.30;7.53;;;13.90;99.90;;;;;;4951809;29;20219;-60
2023/05/07 03:23:36;;;;;;;11.33;7.80;;;13.90;99.90;;;;;;4947922;29;20227;-60
2023/05/07 03:26:05;;;;;;;14.30;7.87;;;13.90;99.90;;;;;;4948866;29;20220;-60
2023/05/07 03:28:34;;;;;;;12.93;7.70;;;13.90;99.90;;;;;;4948453;29;20228;-60
2023/05/07 03:31:02;;;;;;;12.57;7.73;;;13.80;99.90;;;;;;4945437;29;20216;-60
2023/05/07 03:33:30;;;;;;;11.63;8.13;;;13.80;99.90;;;;;;4949522;29;20208;-60
2023/05/07 03:35:58;;;;;;;11.47;7.70;;;13.80;99.90;;;;;;4947451;29;20192;-60
2023/05/07 03:38:26;;;;;;;14.63;7.83;;;13.80;99.90;;;;;;4938935;29;20228;-60
2023/05/07 03:40:55;;;;;;;11.60;7.13;;;13.80;99.90;;;;;;4945021;29;20221;-60
2023/05/07 03:43:24;;;;;;;13.17;8.37;;;13.80;99.90;;;;;;4945556;28;20224;-60
2023/05/07 03:45:52;;;;;;;15.33;8.60;;;13.70;99.90;;;;;;4939417;29;20240;-60
2023/05/07 03:48:21;;;;;;;17.37;8.57;;;13.70;99.90;;;;;;4941107;29;20274;-60
2023/05/07 03:50:49;;;;;;;16.63;9.10;;;13.70;99.90;;;;;;4949033;29;20199;-60
2023/05/07 03:53:17;;;;;;;14.83;9.30;;;13.70;99.90;;;;;;4941211;29;20291;-60
2023/05/07 03:55:45;;;;;;;11.33;7.87;;;13.70;99.90;;;;;;4940087;29;20256;-60
2023/05/07 03:58:14;;;;;;;11.53;7.83;;;13.70;99.90;;;;;;4944151;28;20208;-60
2023/05/07 04:00:44;;;;;;;16.43;7.87;;;13.70;99.90;;;;;;4943069;28;20231;-59
2023/05/07 04:03:12;;;;;;;12.53;7.97;;;13.70;99.90;;;;;;4947480;29;20655;-60
2023/05/07 04:05:40;;;;;;;12.87;7.90;;;13.70;99.90;;;;;;4946405;29;20312;-60
2023/05/07 04:08:08;;;;;;;12.60;8.40;;;13.80;99.90;;;;;;4944533;29;20223;-60
2023/05/07 04:10:37;;;;;;;11.20;8.33;;;13.80;99.90;;;;;;4946447;29;20267;-60
2023/05/07 04:13:05;;;;;;;14.17;9.07;;;13.70;99.90;;;;;;4945400;28;20282;-60
2023/05/07 04:15:33;;;;;;;13.80;8.30;;;13.80;99.90;;;;;;4950073;28;20563;-60
2023/05/07 04:18:03;;;;;;;12.97;8.27;;;13.70;99.90;;;;;;4944302;29;20677;-60
2023/05/07 04:20:31;;;;;;;15.70;8.60;;;13.80;99.90;;;;;;4943017;28;20596;-60
2023/05/07 04:23:00;;;;;;;12.37;8.20;;;13.80;99.90;;;;;;4942250;28;20238;-60
2023/05/07 04:25:28;;;;;;;13.73;8.30;;;13.80;99.90;;;;;;4941400;28;20698;-60
2023/05/07 04:27:56;;;;;;;14.10;8.30;;;13.80;99.90;;;;;;4948072;29;20226;-60
2023/05/07 04:30:25;;;;;;;15.80;8.03;;;13.90;99.90;;;;;;4939949;29;20750;-60
2023/05/07 04:32:53;;;;;;;14.57;8.33;;;13.80;99.90;;;;;;4940091;29;20192;-60
2023/05/07 04:35:23;;;;;;;14.07;8.60;;;13.80;99.90;;;;;;4946445;28;20248;-60
2023/05/07 04:37:51;;;;;;;12.77;8.47;;;13.90;99.90;;;;;;4945731;28;20232;-60
2023/05/07 04:40:20;;;;;;;13.47;8.33;;;13.90;99.90;;;;;;4945814;28;20586;-60
2023/05/07 04:42:48;;;;;;;16.97;8.63;;;13.90;99.90;;;;;;4943468;29;20224;-60
2023/05/07 04:45:16;;;;;;;18.50;8.87;;;14.00;99.90;;;;;;4944188;29;20196;-60
2023/05/07 04:47:44;;;;;;;13.17;8.67;;;14.00;99.90;;;;;;4935303;29;20231;-60
2023/05/07 04:50:13;;;;;;;19.27;9.10;;;14.00;99.90;;;;;;4947219;28;20323;-60
2023/05/07 04:52:42;;;;;;;14.13;8.30;;;14.00;99.90;;;;;;4949210;28;20310;-60
2023/05/07 04:55:11;;;;;;;12.33;8.50;;;14.10;99.90;;;;;;4951608;29;20286;-60
2023/05/07 04:57:41;;;;;;;11.97;8.20;;;14.10;99.90;;;;;;4951240;29;20225;-60
2023/05/07 05:00:10;;;;;;;12.43;8.30;;;14.10;99.90;;;;;;4950679;29;20196;-60
2023/05/07 05:02:38;;;;;;;15.63;8.77;;;14.20;99.90;;;;;;4941892;29;20224;-60
2023/05/07 05:05:08;;;;;;;12.53;8.17;;;14.20;99.90;;;;;;4947500;28;20220;-60
2023/05/07 05:07:36;;;;;;;15.17;8.53;;;14.30;99.90;;;;;;4943391;28;20221;-60
2023/05/07 05:10:07;;;;;;;16.17;9.20;;;14.30;99.90;;;;;;4964193;28;20228;-60
2023/05/07 05:12:36;;;;;;;13.67;8.90;;;14.30;99.90;;;;;;4966533;28;20338;-60
2023/05/07 05:15:05;;;;;;;21.17;10.30;;;14.30;99.90;;;;;;4967911;28;20192;-60
2023/05/07 05:17:34;;;;;;;13.00;8.90;;;14.30;99.90;;;;;;4967570;28;20220;-60
2023/05/07 05:20:03;;;;;;;19.53;9.00;;;14.30;99.90;;;;;;4964549;28;20219;-60
2023/05/07 05:22:31;;;;;;;14.40;7.87;;;14.30;99.90;;;;;;4971015;28;20223;-60
2023/05/07 05:25:00;;;;;;;18.37;8.50;;;14.40;99.90;;;;;;4965895;28;20211;-60
2023/05/07 05:27:30;;;;;;;11.83;8.00;;;14.40;99.90;;;;;;4969619;28;20196;-60
2023/05/07 05:29:58;;;;;;;15.73;8.70;;;14.40;99.90;;;;;;4967561;28;20207;-60
2023/05/07 05:32:26;;;;;;;10.83;8.33;;;14.50;99.90;;;;;;4968132;28;20227;-61
2023/05/07 05:34:55;;;;;;;10.10;8.03;;;14.50;99.90;;;;;;4970077;28;20224;-60
2023/05/07 05:37:24;;;;;;;16.23;9.10;;;14.50;99.90;;;;;;4963980;28;20291;-60
2023/05/07 05:39:54;;;;;;;13.93;7.83;;;14.60;99.90;;;;;;4968164;28;20220;-60
2023/05/07 05:42:22;;;;;;;14.20;7.53;;;14.60;99.90;;;;;;4965970;28;20316;-60
2023/05/07 05:44:52;;;;;;;15.07;7.67;;;14.70;99.90;;;;;;4967248;28;20214;-60
2023/05/07 05:47:20;;;;;;;12.93;7.67;;;14.70;99.90;;;;;;4951492;28;20683;-61
2023/05/07 05:49:48;;;;;;;14.27;8.00;;;14.70;99.90;;;;;;4971210;28;20219;-60
2023/05/07 05:52:17;;;;;;;13.53;8.17;;;14.80;99.90;;;;;;4967604;28;20242;-60
2023/05/07 05:54:45;;;;;;;20.03;8.63;;;14.80;99.90;;;;;;4969048;28;20241;-60
2023/05/07 05:57:14;;;;;;;14.27;8.20;;;14.70;99.90;;;;;;4962830;28;20211;-58
2023/05/07 05:59:42;;;;;;;11.90;7.87;;;14.70;99.90;;;;;;4961504;28;20192;-60
2023/05/07 06:02:11;;;;;;;9.93;7.37;;;14.80;99.90;;;;;;4961649;28;20231;-60
2023/05/07 06:04:40;;;;;;;15.17;8.30;;;14.80;99.90;;;;;;4962707;28;20338;-60
2023/05/07 06:07:08;;;;;;;13.87;7.43;;;14.80;99.90;;;;;;4946248;28;20243;-60
2023/05/07 06:09:36;;;;;;;12.83;7.30;;;14.80;99.90;;;;;;4972654;28;20230;-60
2023/05/07 06:12:05;;;;;;;11.17;7.57;;;14.80;99.90;;;;;;4964394;28;20260;-60
2023/05/07 06:14:33;;;;;;;17.33;7.77;;;14.80;99.90;;;;;;4971260;28;20219;-60
2023/05/07 06:17:01;;;;;;;16.73;7.83;;;14.80;99.90;;;;;;4964391;28;20666;-60
2023/05/07 06:19:31;;;;;;;13.97;7.43;;;14.80;99.90;;;;;;4965097;28;20216;-61
2023/05/07 06:22:01;;;;;;;11.57;7.10;;;14.80;99.90;;;;;;4960835;28;20865;-61
2023/05/07 06:24:29;;;;;;;12.03;7.27;;;14.80;99.90;;;;;;4966770;28;20196;-60
2023/05/07 06:26:58;;;;;;;15.80;7.40;;;14.80;99.90;;;;;;4969322;28;20659;-60
2023/05/07 06:29:26;;;;;;;16.40;7.97;;;14.80;99.90;;;;;;4967562;28;20250;-61
2023/05/07 06:31:55;;;;;;;11.30;6.67;;;14.80;99.90;;;;;;4965420;28;20315;-61
2023/05/07 06:34:23;;;;;;;13.40;7.50;;;14.70;99.90;;;;;;4961544;28;20219;-61
2023/05/07 06:36:53;;;;;;;10.43;6.67;;;14.70;99.90;;;;;;4966125;28;20282;-61
2023/05/07 06:39:21;;;;;;;13.67;7.63;;;14.70;99.90;;;;;;4966196;28;20672;-61
2023/05/07 06:41:49;;;;;;;10.77;6.70;;;14.70;99.90;;;;;;4967092;28;20222;-61
2023/05/07 06:44:18;;;;;;;14.00;6.90;;;14.70;99.90;;;;;;4966765;28;20265;-61
2023/05/07 06:46:46;;;;;;;15.00;7.20;;;14.70;99.90;;;;;;4967525;28;20230;-61
2023/05/07 06:49:15;;;;;;;10.53;6.33;;;14.70;99.90;;;;;;4962106;28;20334;-61
2023/05/07 06:51:43;;;;;;;11.60;6.30;;;14.70;99.90;;;;;;4966131;28;20255;-61
2023/05/07 06:54:13;;;;;;;14.53;6.20;;;14.70;99.90;;;;;;4968644;28;20581;-61
2023/05/07 06:56:41;;;;;;;11.90;6.53;;;14.70;99.90;;;;;;4965635;28;20239;-61
2023/05/07 06:59:09;;;;;;;9.50;6.30;;;14.80;99.90;;;;;;4963323;28;20235;-62
2023/05/07 07:01:38;;;;;;;8.47;5.70;;;14.80;99.90;;;;;;4958687;28;20599;-61
2023/05/07 07:04:06;;;;;;;5.73;5.03;;;14.90;99.90;;;;;;4966479;28;20220;-61
2023/05/07 07:06:35;;;;;;;6.60;5.30;;;14.90;99.90;;;;;;4968352;28;20235;-62
2023/05/07 07:09:03;;;;;;;12.80;5.50;;;15.00;99.90;;;;;;4962828;28;20287;-61
2023/05/07 07:11:33;;;;;;;9.63;5.47;;;15.00;99.90;;;;;;4963064;28;20223;-61
2023/05/07 07:14:01;;;;;;;8.27;5.00;;;15.00;99.90;;;;;;4961241;28;20227;-62
2023/05/07 07:16:29;;;;;;;6.47;4.80;;;15.00;99.90;;;;;;4947328;28;20718;-61
2023/05/07 07:18:58;;;;;;;7.73;5.10;;;15.00;99.90;;;;;;4966266;28;20254;-61
2023/05/07 07:21:26;;;;;;;9.17;5.03;;;15.10;99.90;;;;;;4961037;28;20722;-62
2023/05/07 07:23:55;;;;;;;12.60;5.40;;;15.10;99.90;;;;;;4963830;28;20190;-61
2023/05/07 07:26:23;;;;;;;9.10;5.10;;;15.10;99.90;;;;;;4958919;28;20222;-61
2023/05/07 07:28:53;;;;;;;8.53;5.30;;;15.20;99.90;;;;;;4961895;28;20224;-61
2023/05/07 07:31:23;;;;;;;6.07;5.10;;;15.20;99.90;;;;;;4946228;28;20323;-61
2023/05/07 07:33:51;;;;;;;5.40;4.87;;;15.20;99.90;;;;;;4965567;28;20359;-61
2023/05/07 07:36:20;;;;;;;4.60;4.20;;;15.30;99.90;;;;;;4963217;28;20283;-61
2023/05/07 07:38:50;;;;;;;9.87;4.60;;;15.30;99.90;;;;;;4960560;28;20197;-61
2023/05/07 07:41:19;;;;;;;9.20;4.60;;;15.40;99.90;;;;;;4966506;28;20602;-61
2023/05/07 07:43:47;;;;;;;6.57;4.40;;;15.40;99.90;;;;;;4961131;28;20223;-61
2023/05/07 07:46:20;;;;;;;6.67;4.03;;;15.30;99.90;;;;;;4942891;28;20717;-61
2023/05/07 07:48:48;;;;;;;5.23;4.43;;;15.40;99.90;;;;;;4947857;28;20226;-61
2023/05/07 07:51:17;;;;;;;11.60;5.00;;;15.50;99.90;;;;;;4958167;28;20207;-61
2023/05/07 07:53:45;;;;;;;6.67;4.57;;;15.50;99.90;;;;;;4960062;28;20200;-61
2023/05/07 07:56:13;;;;;;;9.10;4.70;;;15.60;99.90;;;;;;4946233;28;20861;-61
2023/05/07 07:58:41;;;;;;;8.80;5.00;;;15.60;99.90;;;;;;4960934;28;20232;-61
2023/05/07 08:01:09;;;;;;;8.40;4.10;;;15.60;99.90;;;;;;4956912;28;20260;-61
2023/05/07 08:03:39;;;;;;;9.77;4.10;;;15.60;99.90;;;;;;4957232;28;20327;-61
2023/05/07 08:06:08;;;;;;;5.63;4.40;;;15.70;99.90;;;;;;4964132;28;20585;-61
2023/05/07 08:08:37;;;;;;;5.67;4.53;;;15.70;99.90;;;;;;4957810;28;20278;-62
2023/05/07 08:11:05;;;;;;;4.67;3.93;;;15.80;99.90;;;;;;4956797;28;20696;-60
2023/05/07 08:13:34;;;;;;;6.90;4.13;;;15.80;99.90;;;;;;4957614;28;20222;-62
2023/05/07 08:16:02;;;;;;;7.83;4.30;;;15.80;99.90;;;;;;4958618;28;20886;-61
2023/05/07 08:18:30;;;;;;;4.63;3.80;;;15.90;99.90;;;;;;4958528;28;20295;-61
2023/05/07 08:21:00;;;;;;;5.57;4.07;;;15.90;99.90;;;;;;4958687;28;20196;-61
2023/05/07 08:23:28;;;;;;;5.67;4.33;;;15.90;99.90;;;;;;4960268;28;20807;-61
2023/05/07 08:25:57;;;;;;;5.53;4.43;;;15.90;99.90;;;;;;4959767;28;20219;-61
2023/05/07 08:28:25;;;;;;;7.97;5.03;;;15.90;99.90;;;;;;4962917;28;20764;-61
2023/05/07 08:30:54;;;;;;;8.80;4.43;;;15.90;99.90;;;;;;4959960;28;20771;-61
2023/05/07 08:33:22;;;;;;;4.40;4.10;;;15.90;99.90;;;;;;4963616;28;20595;-62
2023/05/07 08:35:50;;;;;;;7.47;4.50;;;15.90;99.90;;;;;;4966107;28;20196;-61
2023/05/07 08:38:20;;;;;;;5.53;4.47;;;15.90;99.90;;;;;;4957041;28;20657;-61
2023/05/07 08:40:48;;;;;;;8.20;4.70;;;15.90;99.90;;;;;;4960299;28;20212;-61
2023/05/07 08:43:19;;;;;;;6.43;4.33;;;15.90;99.90;;;;;;4957503;28;20667;-61
2023/05/07 08:45:53;;;;;;;10.77;4.87;;;15.80;99.90;;;;;;4960814;28;21113;-61
2023/05/07 08:48:26;;;;;;;6.00;4.50;;;15.90;99.90;;;;;;4955443;28;20221;-62
2023/05/07 08:50:54;;;;;;;8.90;4.30;;;15.90;99.90;;;;;;4940068;28;20219;-61
2023/05/07 08:53:24;;;;;;;5.03;3.87;;;15.90;99.90;;;;;;4937238;28;20718;-61
2023/05/07 08:55:53;;;;;;;6.60;4.30;;;15.90;99.90;;;;;;4957406;28;20226;-62
2023/05/07 08:58:22;;;;;;;6.43;4.60;;;15.90;99.90;;;;;;4965728;28;20263;-62
2023/05/07 09:00:51;;;;;;;7.60;4.60;;;15.90;99.90;;;;;;4966036;28;20294;-61
2023/05/07 09:03:19;;;;;;;5.83;4.30;;;15.90;99.90;;;;;;4955690;28;20236;-61
2023/05/07 09:05:48;;;;;;;5.87;4.37;;;16.00;99.90;;;;;;4960400;28;20275;-62
2023/05/07 09:08:16;;;;;;;9.37;4.73;;;16.00;99.90;;;;;;4959675;28;20576;-62
2023/05/07 09:10:46;;;;;;;4.50;4.20;;;16.10;99.90;;;;;;4963197;28;20223;-61
2023/05/07 09:13:14;;;;;;;5.23;4.70;;;16.20;99.90;;;;;;4956210;28;20286;-61
2023/05/07 09:15:43;;;;;;;5.57;4.43;;;16.20;99.90;;;;;;4959119;28;20231;-62
2023/05/07 09:18:11;;;;;;;7.00;4.27;;;16.20;99.90;;;;;;4938405;28;20210;-61
2023/05/07 09:20:41;;;;;;;6.13;4.33;;;16.20;99.90;;;;;;4961868;28;20754;-62
2023/05/07 09:23:09;;;;;;;6.07;4.70;;;16.40;99.90;;;;;;4963957;28;20227;-61
2023/05/07 09:25:38;;;;;;;8.13;4.77;;;16.40;99.90;;;;;;4964186;28;20280;-61
2023/05/07 09:28:09;;;;;;;8.73;4.33;;;16.40;99.90;;;;;;4959174;28;20286;-61
2023/05/07 09:30:38;;;;;;;5.43;3.93;;;16.50;99.90;;;;;;4948054;28;20297;-62
2023/05/07 09:33:06;;;;;;;3.80;3.50;;;16.50;99.90;;;;;;4963224;28;20290;-61
2023/05/07 09:35:34;;;;;;;6.73;3.27;;;16.60;99.90;;;;;;4947644;28;20221;-62
2023/05/07 09:38:03;;;;;;;4.23;3.40;;;16.50;99.90;;;;;;4962581;28;20220;-61
2023/05/07 09:40:32;;;;;;;4.30;3.30;;;16.50;99.90;;;;;;4965993;28;20578;-62
2023/05/07 09:43:12;;;;;;;7.37;3.50;;;16.60;99.90;;;;;;4955313;28;20290;-61
2023/05/07 09:45:41;;;;;;;4.63;3.70;;;16.70;99.90;;;;;;4962134;28;20782;-62
2023/05/07 09:48:11;;;;;;;4.50;3.33;;;16.70;99.90;;;;;;4966965;28;20225;-62
2023/05/07 09:50:49;;;;;;;5.37;3.53;;;16.70;99.90;;;;;;4969212;28;20270;-62
2023/05/07 09:53:18;;;;;;;4.60;3.20;;;16.80;99.90;;;;;;4966575;28;20275;-62
2023/05/07 09:55:47;;;;;;;5.27;4.30;;;16.80;99.90;;;;;;4961684;28;20219;-62
2023/05/07 09:58:19;;;;;;;5.17;3.90;;;16.80;99.90;;;;;;4958870;28;20630;-62
2023/05/07 10:00:48;;;;;;;9.00;4.33;;;16.80;99.90;;;;;;4963771;28;20230;-62
2023/05/07 10:03:16;;;;;;;5.93;4.60;;;16.80;99.90;;;;;;4962879;28;20734;-61
2023/05/07 10:05:47;;;;;;;5.13;4.33;;;16.80;99.90;;;;;;4963249;28;20600;-61
2023/05/07 10:08:16;;;;;;;3.87;3.57;;;16.80;99.90;;;;;;4966467;28;20219;-61
2023/05/07 10:10:46;;;;;;;7.33;4.30;;;16.80;99.90;;;;;;4966802;28;20231;-61
2023/05/07 10:13:16;;;;;;;5.13;4.23;;;16.80;99.90;;;;;;4965305;28;20231;-61
2023/05/07 10:15:45;;;;;;;4.87;4.10;;;16.90;99.90;;;;;;4963915;28;20231;-61
2023/05/07 10:18:14;;;;;;;7.63;4.73;;;17.00;99.90;;;;;;4943033;28;20239;-62
2023/05/07 10:20:46;;;;;;;4.70;4.03;;;17.10;99.90;;;;;;4966988;28;20218;-61
2023/05/07 10:23:17;;;;;;;6.73;6.03;;;17.20;99.90;;;;;;4963338;28;20227;-61
2023/05/07 10:25:46;;;;;;;5.57;5.07;;;17.20;99.90;;;;;;4967383;28;20222;-61
2023/05/07 10:28:18;;;;;;;5.50;4.53;;;17.20;99.90;;;;;;4961004;28;20230;-61
2023/05/07 10:31:00;;;;;;;4.40;4.10;;;17.20;99.90;;;;;;4945757;28;20235;-61
2023/05/07 10:33:31;;;;;;;6.27;4.67;;;17.20;99.90;;;;;;4959075;28;20210;-61
2023/05/07 10:36:04;;;;;;;5.07;4.20;;;17.20;99.90;;;;;;4964462;28;20202;-61
2023/05/07 10:38:32;;;;;;;6.27;4.60;;;17.30;99.90;;;;;;4962621;28;20219;-61
2023/05/07 10:41:01;;;;;;;4.47;4.03;;;17.40;99.90;;;;;;4963696;28;20229;-61
2023/05/07 10:43:42;;;;;;;5.03;4.30;;;17.40;99.90;;;;;;4964303;28;20310;-62
2023/05/07 10:46:16;;;;;;;5.50;4.70;;;17.30;99.90;;;;;;4965064;28;20229;-61
2023/05/07 10:49:11;;;;;;;4.83;4.43;;;17.50;99.90;;;;;;4945753;28;20241;-61
2023/05/07 10:51:40;;;;;;;6.50;4.30;;;17.70;99.90;;;;;;4954135;28;20247;-61
2023/05/07 10:54:22;;;;;;;6.00;4.53;;;17.70;99.90;;;;;;4967555;28;20195;-61
2023/05/07 10:56:51;;;;;;;6.47;4.57;;;17.70;99.90;;;;;;4961253;28;20237;-62
2023/05/07 10:59:41;;;;;;;6.07;4.33;;;17.70;99.90;;;;;;4965600;28;20230;-62
2023/05/07 11:02:11;;;;;;;4.67;4.27;;;17.70;99.90;;;;;;4963344;28;20227;-61
2023/05/07 11:04:41;;;;;;;4.97;4.53;;;17.50;99.90;;;;;;4948502;28;20227;-61
2023/05/07 11:07:26;;;;;;;5.17;4.40;;;17.50;99.90;;;;;;4946078;28;20690;-61
2023/05/07 11:10:01;;;;;;;5.30;4.80;;;17.60;99.90;;;;;;4965163;28;20227;-62
2023/05/07 11:12:54;;;;;;;9.60;6.70;;;17.70;99.90;;;;;;4957242;28;20215;-62
2023/05/07 11:15:44;;;;;;;6.10;4.97;;;17.70;99.90;;;;;;4964743;28;20187;-61
2023/05/07 11:18:16;;;;;;;5.57;4.40;;;17.80;99.90;;;;;;4963535;28;20195;-62
2023/05/07 11:20:59;;;;;;;5.63;4.53;;;17.70;99.90;;;;;;4967359;28;20294;-62
2023/05/07 11:23:59;;;;;;;4.63;4.23;;;17.80;99.90;;;;;;4960159;28;20224;-62
2023/05/07 11:26:30;;;;;;;4.50;4.17;;;17.80;99.90;;;;;;4958880;28;20246;-61
2023/05/07 11:29:00;;;;;;;4.77;3.93;;;17.80;99.90;;;;;;4964238;28;20226;-62
2023/05/07 11:31:29;;;;;;;4.87;4.53;;;17.80;99.90;;;;;;4958567;28;20223;-62
2023/05/07 11:33:58;;;;;;;5.00;4.57;;;17.80;99.90;;;;;;4945059;28;20234;-62
2023/05/07 11:36:32;;;;;;;5.07;4.67;;;17.80;99.90;;;;;;4964846;28;20219;-62
2023/05/07 11:39:01;;;;;;;4.20;3.80;;;17.90;99.90;;;;;;4965754;28;20203;-62
2023/05/07 11:41:36;;;;;;;4.83;4.40;;;18.30;99.90;;;;;;4966064;28;20226;-62
2023/05/07 11:44:05;;;;;;;3.60;3.37;;;18.40;99.90;;;;;;4966074;28;20270;-62
2023/05/07 11:46:35;;;;;;;5.27;3.60;;;18.40;99.90;;;;;;4963460;28;20223;-62
2023/05/07 11:49:03;;;;;;;4.00;3.70;;;18.30;99.90;;;;;;4961112;28;20270;-62
2023/05/07 11:51:31;;;;;;;4.23;3.80;;;18.10;99.90;;;;;;4963733;28;20202;-62
2023/05/07 11:54:00;;;;;;;3.87;3.57;;;18.10;99.90;;;;;;4966069;28;20219;-62
2023/05/07 11:56:28;;;;;;;3.50;3.30;;;18.00;99.90;;;;;;4960710;28;20219;-62
2023/05/07 11:58:56;;;;;;;3.70;3.50;;;18.10;99.90;;;;;;4957127;28;20638;-62
2023/05/07 12:01:24;;;;;;;3.57;3.37;;;18.10;99.90;;;;;;4957088;28;20231;-62
2023/05/07 12:03:54;;;;;;;3.27;3.17;;;18.10;99.90;;;;;;4957285;28;20220;-62
2023/05/07 12:06:22;;;;;;;3.30;3.10;;;18.20;99.90;;;;;;4913867;29;20260;-62
2023/05/07 12:08:51;;;;;;;2.77;2.60;;;18.20;99.90;;;;;;4921883;29;20517;-62
2023/05/07 12:11:24;;;;;;;3.03;2.90;;;18.20;99.90;;;;;;4916363;29;20225;-61
2023/05/07 12:13:55;;;;;;;3.00;2.80;;;18.20;99.90;;;;;;4918938;29;20237;-62
2023/05/07 12:16:30;;;;;;;3.17;2.87;;;18.20;99.90;;;;;;4921477;29;20238;-62
2023/05/07 12:19:00;;;;;;;2.83;2.73;;;18.10;99.90;;;;;;4920521;29;20229;-61
2023/05/07 12:21:30;;;;;;;3.33;2.90;;;18.10;99.90;;;;;;4908191;29;20209;-61
2023/05/07 12:23:58;;;;;;;3.40;3.10;;;17.90;99.90;;;;;;4914210;29;20189;-62
2023/05/07 12:26:27;;;;;;;5.77;2.60;;;17.80;99.90;;;;;;4918305;29;20220;-62
2023/05/07 12:28:55;;;;;;;2.53;2.47;;;17.70;99.90;;;;;;4924091;29;20619;-62
2023/05/07 12:31:23;;;;;;;3.77;3.17;;;17.70;99.90;;;;;;4919836;29;20738;-61
2023/05/07 12:33:52;;;;;;;4.83;4.30;;;17.60;99.90;;;;;;4925587;29;20311;-61
2023/05/07 12:36:22;;;;;;;5.00;4.70;;;17.50;99.90;;;;;;4926487;29;20205;-62
2023/05/07 12:38:50;;;;;;;5.63;5.10;;;17.40;99.90;;;;;;4906783;29;20193;-62
2023/05/07 12:41:25;;;;;;;6.73;5.67;;;17.40;99.90;;;;;;4930797;29;20224;-62
2023/05/07 12:43:57;;;;;;;7.77;6.30;;;17.30;99.90;;;;;;4916726;29;20312;-62
2023/05/07 12:46:25;;;;;;;6.13;5.60;;;17.40;99.90;;;;;;4916532;29;20252;-62
2023/05/07 12:48:54;;;;;;;6.00;5.50;;;17.40;99.90;;;;;;4922258;29;20274;-62
2023/05/07 12:51:24;;;;;;;6.80;6.20;;;17.50;99.90;;;;;;4919739;29;20208;-62
2023/05/07 12:53:57;;;;;;;10.37;6.80;;;17.40;99.90;;;;;;4920628;29;20810;-62
2023/05/07 12:56:25;;;;;;;6.97;6.37;;;17.40;99.90;;;;;;4909857;29;20781;-61